createdAt,value
2022-08-05T00:04:08.184Z,100167.55
2022-08-05T00:09:12.880Z,100164.41
2022-08-05T00:14:17.086Z,100162.84
2022-08-05T00:19:19.447Z,100161.52
2022-08-05T00:24:31.064Z,100153.43
2022-08-05T00:29:38.041Z,100153.00
2022-08-05T00:35:03.740Z,100149.27
2022-08-05T00:40:07.169Z,100143.11
2022-08-05T00:45:13.469Z,100139.73
2022-08-05T00:50:15.766Z,100139.92
2022-08-05T00:55:18.895Z,100135.86
2022-08-05T01:00:21.946Z,100133.52
2022-08-05T01:05:28.028Z,100129.54
2022-08-05T01:11:01.126Z,100123.73
2022-08-05T01:16:05.281Z,100121.59
2022-08-05T01:21:38.710Z,100123.58
2022-08-05T01:26:59.430Z,100112.15
2022-08-05T01:32:06.937Z,100108.14
2022-08-05T01:37:39.701Z,100102.57
2022-08-05T01:42:47.829Z,100104.63
2022-08-05T01:47:50.298Z,100101.08
2022-08-05T01:53:00.605Z,100093.80
2022-08-05T01:58:10.983Z,100093.40
2022-08-05T02:03:24.180Z,100093.16
2022-08-05T02:08:33.201Z,100091.83
2022-08-05T02:13:53.466Z,100088.31
2022-08-05T02:19:01.343Z,100081.86
2022-08-05T02:24:11.319Z,100083.21
2022-08-05T02:29:21.682Z,100079.02
2022-08-05T02:34:30.224Z,100077.24
2022-08-05T02:39:36.502Z,100072.51
2022-08-05T02:44:44.544Z,100068.13
2022-08-05T02:49:46.832Z,100065.59
2022-08-05T02:54:50.678Z,100065.63
2022-08-05T02:59:55.115Z,100065.25
2022-08-05T03:04:58.196Z,100064.98
2022-08-05T03:10:00.250Z,100058.71
2022-08-05T03:15:06.910Z,100055.25
2022-08-05T03:20:13.526Z,100050.34
2022-08-05T03:25:33.343Z,100052.45
2022-08-05T03:30:41.059Z,100049.06
2022-08-05T03:35:45.739Z,100046.50
2022-08-05T03:40:48.573Z,100044.16
2022-08-05T03:45:57.431Z,100043.59
2022-08-05T03:52:39.198Z,100044.58
2022-08-05T03:56:42.955Z,100047.61
2022-08-05T04:01:50.899Z,100044.11
2022-08-05T04:06:54.619Z,100041.60
2022-08-05T04:11:58.146Z,100042.83
2022-08-05T04:17:00.340Z,100036.52
2022-08-05T04:22:05.864Z,100033.33
2022-08-05T04:27:13.193Z,100029.88
2022-08-05T04:32:20.033Z,100024.39
2022-08-05T04:38:01.391Z,100024.31
2022-08-05T04:42:55.361Z,100025.58
2022-08-05T04:48:18.501Z,100022.29
2022-08-05T04:53:33.640Z,100031.73
2022-08-05T04:58:37.483Z,100032.50
2022-08-05T05:03:42.153Z,100034.68
2022-08-05T05:08:44.457Z,100040.95
2022-08-05T05:13:52.677Z,100033.55
2022-08-05T05:19:18.873Z,100032.91
2022-08-05T05:24:21.479Z,100034.70
2022-08-05T05:29:23.423Z,100033.63
2022-08-05T05:34:26.982Z,100030.63
2022-08-05T05:39:34.480Z,100031.23
2022-08-05T05:44:42.986Z,100030.52
2022-08-05T05:49:48.067Z,100032.79
2022-08-05T05:55:00.684Z,100038.05
2022-08-05T06:00:10.225Z,100033.85
2022-08-05T06:05:27.817Z,100032.28
2022-08-05T06:10:36.421Z,100038.63
2022-08-05T06:16:29.065Z,100036.37
2022-08-05T06:21:00.908Z,100034.10
2022-08-05T06:26:21.031Z,100035.64
2022-08-05T06:31:30.577Z,100035.57
2022-08-05T06:36:53.579Z,100031.42
2022-08-05T06:42:01.658Z,100026.08
2022-08-05T06:47:06.282Z,100016.45
2022-08-05T06:52:37.650Z,100018.20
2022-08-05T06:58:02.466Z,100023.55
2022-08-05T07:03:00.202Z,100023.29
2022-08-05T07:08:05.578Z,100020.13
2022-08-05T07:13:58.255Z,100022.02
2022-08-05T07:18:52.946Z,100021.02
2022-08-05T07:23:57.670Z,100014.40
2022-08-05T07:29:10.144Z,100008.36
2022-08-05T07:34:21.201Z,100010.55
2022-08-05T07:40:26.933Z,100005.14
2022-08-05T07:44:51.410Z,100008.79
2022-08-05T07:49:54.706Z,100007.90
2022-08-05T07:54:57.124Z,100010.94
2022-08-05T08:00:00.188Z,100009.90
2022-08-05T08:05:11.412Z,100006.84
2022-08-05T08:10:13.598Z,100008.42
2022-08-05T08:15:28.087Z,100004.81
2022-08-05T08:21:02.098Z,99999.05
2022-08-05T08:26:09.131Z,99998.45
2022-08-05T08:31:15.009Z,99992.70
2022-08-05T08:36:40.183Z,99994.23
2022-08-05T08:42:08.958Z,99996.98
2022-08-05T08:48:05.583Z,99991.33
2022-08-05T08:52:54.047Z,99987.83
2022-08-05T08:58:03.312Z,99990.92
2022-08-05T09:03:06.955Z,99988.11
2022-08-05T09:08:09.931Z,99986.55
2022-08-05T09:13:16.484Z,99985.23
2022-08-05T09:18:19.286Z,99982.83
2022-08-05T09:23:22.101Z,99977.14
2022-08-05T09:28:32.350Z,99969.59
2022-08-05T09:33:50.898Z,99976.64
2022-08-05T09:39:18.135Z,99977.64
2022-08-05T09:44:40.150Z,99971.57
2022-08-05T09:50:01.113Z,99967.77
2022-08-05T09:55:57.837Z,99969.67
2022-08-05T10:00:30.687Z,99969.11
2022-08-05T10:05:33.942Z,99971.02
2022-08-05T10:10:48.302Z,99969.52
2022-08-05T10:15:55.336Z,99968.20
2022-08-05T10:21:08.473Z,99962.45
2022-08-05T10:26:15.585Z,99965.73
2022-08-05T10:32:47.206Z,99960.42
2022-08-05T10:36:45.871Z,99950.44
2022-08-05T10:42:11.497Z,99942.95
2022-08-05T10:47:26.107Z,99937.85
2022-08-05T10:52:53.537Z,99930.22
2022-08-05T10:58:11.953Z,99925.23
2022-08-05T11:03:25.731Z,99927.30
2022-08-05T11:08:37.918Z,99930.53
2022-08-05T11:13:54.784Z,99932.02
2022-08-05T11:20:16.949Z,99926.90
2022-08-05T11:26:05.070Z,99923.67
2022-08-05T11:30:59.468Z,99920.61
2022-08-05T11:36:08.462Z,99913.47
2022-08-05T11:41:56.266Z,99917.23
2022-08-05T11:47:09.911Z,99919.98
2022-08-05T11:52:14.686Z,99916.41
2022-08-05T11:58:08.719Z,99913.85
2022-08-05T12:02:53.963Z,99913.20
2022-08-05T12:08:03.664Z,99910.95
2022-08-05T12:13:47.786Z,99908.39
2022-08-05T12:18:48.978Z,99902.83
2022-08-05T12:24:07.982Z,99900.04
2022-08-05T12:29:22.554Z,99896.14
2022-08-05T12:34:35.709Z,99894.13
2022-08-05T12:39:39.206Z,99892.75
2022-08-05T12:44:43.185Z,99889.04
2022-08-05T12:50:04.009Z,99887.14
2022-08-05T12:55:22.100Z,99881.73
2022-08-05T13:02:02.060Z,99879.49
2022-08-05T13:05:58.110Z,99874.04
2022-08-05T13:11:04.239Z,99874.91
2022-08-05T13:16:16.655Z,99871.81
2022-08-05T13:21:22.621Z,99862.95
2022-08-05T13:26:31.223Z,99860.80
2022-08-05T13:31:34.027Z,99856.14
2022-08-05T13:36:57.139Z,99857.77
2022-08-05T13:41:59.053Z,99855.06
2022-08-05T13:47:04.934Z,99851.86
2022-08-05T13:52:29.604Z,99846.66
2022-08-05T13:57:50.775Z,99853.23
2022-08-05T14:02:55.531Z,99856.55
2022-08-05T14:08:03.252Z,99849.66
2022-08-05T14:13:09.509Z,99839.25
2022-08-05T14:18:18.341Z,99837.57
2022-08-05T14:23:36.431Z,99841.83
2022-08-05T14:28:52.183Z,99842.45
2022-08-05T14:33:59.850Z,99837.69
2022-08-05T14:39:05.395Z,99841.29
2022-08-05T14:44:20.023Z,99836.86
2022-08-05T14:49:56.291Z,99835.96
2022-08-05T14:54:52.669Z,99836.97
2022-08-05T14:59:58.524Z,99839.81
2022-08-05T15:05:00.771Z,99836.45
2022-08-05T15:10:12.080Z,99828.15
2022-08-05T15:15:15.776Z,99821.98
2022-08-05T15:20:19.371Z,99811.05
2022-08-05T15:25:51.501Z,99811.17
2022-08-05T15:30:53.013Z,99819.36
2022-08-05T15:35:55.438Z,99817.17
2022-08-05T15:41:23.160Z,99812.05
2022-08-05T15:46:25.246Z,99808.77
2022-08-05T15:52:09.706Z,99803.86
2022-08-05T15:56:50.109Z,99798.44
2022-08-05T16:01:54.481Z,99794.29
2022-08-05T16:07:01.584Z,99787.92
2022-08-05T16:12:03.828Z,99785.98
2022-08-05T16:17:07.979Z,99789.37
2022-08-05T16:22:15.296Z,99788.71
2022-08-05T16:27:17.435Z,99787.59
2022-08-05T16:32:28.722Z,99786.14
2022-08-05T16:38:03.685Z,99784.52
2022-08-05T16:42:56.580Z,99781.63
2022-08-05T16:48:02.920Z,99786.61
2022-08-05T16:53:12.384Z,99785.63
2022-08-05T16:58:26.370Z,99786.33
2022-08-05T17:03:28.530Z,99786.24
2022-08-05T17:08:52.988Z,99782.95
2022-08-05T17:14:05.582Z,99789.96
2022-08-05T17:19:09.559Z,99785.55
2022-08-05T17:24:28.393Z,99790.95
2022-08-05T17:29:41.164Z,99791.14
2022-08-05T17:34:48.230Z,99797.02
2022-08-05T17:39:55.747Z,99801.23
2022-08-05T17:44:58.174Z,99805.14
2022-08-05T17:50:10.174Z,99809.67
2022-08-05T17:55:12.988Z,99814.52
2022-08-05T18:00:15.378Z,99810.29
2022-08-05T18:05:18.888Z,99819.63
2022-08-05T18:10:21.717Z,99822.17
2022-08-05T18:15:26.753Z,99821.92
2022-08-05T18:20:32.098Z,99830.20
2022-08-05T18:25:34.621Z,99837.13
2022-08-05T18:30:39.166Z,99842.10
2022-08-05T18:35:59.682Z,99868.58
2022-08-05T18:41:53.758Z,99882.96
2022-08-05T18:46:50.486Z,99892.84
2022-08-05T18:52:11.035Z,99898.88
2022-08-05T18:57:15.322Z,99917.14
2022-08-05T19:02:26.766Z,99930.68
2022-08-05T19:07:36.308Z,99939.45
2022-08-05T19:12:48.435Z,99936.81
2022-08-05T19:18:08.689Z,99948.89
2022-08-05T19:24:04.286Z,99957.42
2022-08-05T19:28:44.080Z,99964.56
2022-08-05T19:33:56.439Z,99964.74
2022-08-05T19:39:02.015Z,99971.89
2022-08-05T19:44:13.702Z,99981.60
2022-08-05T19:49:26.024Z,99988.71
2022-08-05T19:54:39.501Z,99997.89
2022-08-05T19:59:54.549Z,99999.58
2022-08-05T20:05:43.225Z,100010.98
2022-08-05T20:11:01.317Z,100013.34
2022-08-05T20:16:07.801Z,100016.05
2022-08-05T20:21:11.413Z,100013.29
2022-08-05T20:26:19.598Z,100031.38
2022-08-05T20:31:36.861Z,100039.95
2022-08-05T20:36:51.439Z,100053.34
2022-08-05T20:42:13.437Z,100062.79
2022-08-05T20:47:32.220Z,100070.23
2022-08-05T20:52:46.401Z,100079.31
2022-08-05T20:57:53.851Z,100093.37
2022-08-05T21:03:08.860Z,100102.98
2022-08-05T21:08:14.931Z,100103.77
2022-08-05T21:13:47.909Z,100107.44
2022-08-05T21:19:03.625Z,100104.81
2022-08-05T21:24:19.519Z,100112.50
2022-08-05T21:29:40.594Z,100130.69
2022-08-05T21:35:08.887Z,100173.16
2022-08-05T21:40:26.247Z,100203.19
2022-08-05T21:45:51.816Z,100219.01
2022-08-05T21:50:53.207Z,100228.00
2022-08-05T21:56:09.655Z,100220.15
2022-08-05T22:01:23.935Z,100208.35
2022-08-05T22:06:34.887Z,100192.58
2022-08-05T22:11:37.848Z,100170.91
2022-08-05T22:16:41.770Z,100182.30
2022-08-05T22:21:53.991Z,100185.23
2022-08-05T22:27:17.390Z,100177.67
2022-08-05T22:32:21.609Z,100182.41
2022-08-05T22:37:26.256Z,100197.34
2022-08-05T22:42:57.913Z,100197.88
2022-08-05T22:48:01.887Z,100215.92
2022-08-05T22:53:05.751Z,100219.25
2022-08-05T22:58:14.701Z,100217.52
2022-08-05T23:03:19.876Z,100225.04
2022-08-05T23:08:42.265Z,100222.60
2022-08-05T23:13:45.167Z,100224.41
2022-08-05T23:18:53.483Z,100221.38
2022-08-05T23:23:57.798Z,100226.06
2022-08-05T23:29:00.145Z,100232.99
2022-08-05T23:34:06.768Z,100231.79
2022-08-05T23:39:09.322Z,100243.14
2022-08-05T23:44:13.436Z,100246.81
2022-08-05T23:49:23.669Z,100250.89
2022-08-05T23:54:38.073Z,100266.73
